sensor_id;sensor_type;location;lat;lon;timestamp;P1;durP1;ratioP1;P2;durP2;ratioP2
80625;SDS011;69982;51.758;5.784;2024-02-28T02:29:57;16.30;;;8.40;;
80625;SDS011;69982;51.758;5.784;2024-02-28T02:32:31;17.00;;;9.00;;
80625;SDS011;69982;51.758;5.784;2024-02-28T02:34:58;18.90;;;8.20;;
80625;SDS011;69982;51.758;5.784;2024-02-28T02:37:45;21.80;;;8.50;;
80625;SDS011;69982;51.758;5.784;2024-02-28T02:40:20;22.60;;;8.80;;
80625;SDS011;69982;51.758;5.784;2024-02-28T02:42:51;21.20;;;8.30;;
80625;SDS011;69982;51.758;5.784;2024-02-28T02:45:19;20.30;;;8.60;;
80625;SDS011;69982;51.758;5.784;2024-02-28T02:47:51;21.20;;;8.60;;
80625;SDS011;69982;51.758;5.784;2024-02-28T02:50:20;26.10;;;8.90;;
80625;SDS011;69982;51.758;5.784;2024-02-28T02:52:47;18.70;;;9.10;;
80625;SDS011;69982;51.758;5.784;2024-02-28T02:55:14;18.40;;;9.40;;
80625;SDS011;69982;51.758;5.784;2024-02-28T02:57:41;18.00;;;9.00;;
80625;SDS011;69982;51.758;5.784;2024-02-28T03:00:08;17.90;;;9.00;;
80625;SDS011;69982;51.758;5.784;2024-02-28T03:02:36;16.30;;;9.10;;
80625;SDS011;69982;51.758;5.784;2024-02-28T03:05:05;17.90;;;9.00;;
80625;SDS011;69982;51.758;5.784;2024-02-28T03:07:32;16.10;;;8.80;;
80625;SDS011;69982;51.758;5.784;2024-02-28T03:12:28;15.90;;;7.20;;
80625;SDS011;69982;51.758;5.784;2024-02-28T03:14:55;16.40;;;8.50;;
80625;SDS011;69982;51.758;5.784;2024-02-28T03:17:21;19.00;;;8.40;;
80625;SDS011;69982;51.758;5.784;2024-02-28T03:19:51;18.00;;;8.10;;
80625;SDS011;69982;51.758;5.784;2024-02-28T03:22:18;22.30;;;7.10;;
80625;SDS011;69982;51.758;5.784;2024-02-28T03:25:03;19.30;;;8.30;;
80625;SDS011;69982;51.758;5.784;2024-02-28T03:27:39;20.40;;;7.60;;
80625;SDS011;69982;51.758;5.784;2024-02-28T03:30:05;20.30;;;10.20;;
80625;SDS011;69982;51.758;5.784;2024-02-28T03:32:32;21.00;;;10.00;;
80625;SDS011;69982;51.758;5.784;2024-02-28T03:34:59;17.70;;;8.90;;
80625;SDS011;69982;51.758;5.784;2024-02-28T03:37:26;18.50;;;9.50;;
80625;SDS011;69982;51.758;5.784;2024-02-28T03:39:52;17.10;;;9.30;;
80625;SDS011;69982;51.758;5.784;2024-02-28T03:42:19;15.30;;;8.60;;
80625;SDS011;69982;51.758;5.784;2024-02-28T03:44:46;17.50;;;9.60;;
80625;SDS011;69982;51.758;5.784;2024-02-28T03:47:15;18.10;;;9.60;;
80625;SDS011;69982;51.758;5.784;2024-02-28T03:49:42;21.10;;;9.50;;
80625;SDS011;69982;51.758;5.784;2024-02-28T03:52:12;17.30;;;8.70;;
80625;SDS011;69982;51.758;5.784;2024-02-28T03:54:43;15.80;;;8.10;;
80625;SDS011;69982;51.758;5.784;2024-02-28T03:57:12;25.70;;;10.50;;
80625;SDS011;69982;51.758;5.784;2024-02-28T03:59:40;33.90;;;10.80;;
80625;SDS011;69982;51.758;5.784;2024-02-28T04:02:07;21.30;;;9.30;;
80625;SDS011;69982;51.758;5.784;2024-02-28T04:04:37;18.70;;;8.80;;
80625;SDS011;69982;51.758;5.784;2024-02-28T04:07:28;25.10;;;9.20;;
80625;SDS011;69982;51.758;5.784;2024-02-28T04:09:55;25.30;;;11.30;;
80625;SDS011;69982;51.758;5.784;2024-02-28T04:12:21;21.90;;;10.50;;
80625;SDS011;69982;51.758;5.784;2024-02-28T04:14:53;23.20;;;11.10;;
80625;SDS011;69982;51.758;5.784;2024-02-28T04:17:20;22.60;;;10.40;;
80625;SDS011;69982;51.758;5.784;2024-02-28T04:19:47;19.10;;;8.60;;
80625;SDS011;69982;51.758;5.784;2024-02-28T04:22:17;19.50;;;10.40;;
80625;SDS011;69982;51.758;5.784;2024-02-28T04:24:43;21.40;;;9.90;;
80625;SDS011;69982;51.758;5.784;2024-02-28T04:27:10;20.50;;;10.70;;
80625;SDS011;69982;51.758;5.784;2024-02-28T04:29:38;16.30;;;8.20;;
80625;SDS011;69982;51.758;5.784;2024-02-28T04:32:53;21.10;;;9.80;;
80625;SDS011;69982;51.758;5.784;2024-02-28T04:35:20;24.20;;;10.20;;
80625;SDS011;69982;51.758;5.784;2024-02-28T04:37:47;19.40;;;10.10;;
80625;SDS011;69982;51.758;5.784;2024-02-28T04:40:14;16.30;;;8.20;;
80625;SDS011;69982;51.758;5.784;2024-02-28T04:42:41;23.00;;;9.90;;
80625;SDS011;69982;51.758;5.784;2024-02-28T04:48:03;22.30;;;9.60;;
80625;SDS011;69982;51.758;5.784;2024-02-28T04:50:32;16.70;;;7.00;;
80625;SDS011;69982;51.758;5.784;2024-02-28T04:53:21;21.90;;;10.10;;
80625;SDS011;69982;51.758;5.784;2024-02-28T04:56:17;21.50;;;10.60;;
80625;SDS011;69982;51.758;5.784;2024-02-28T04:58:44;21.90;;;10.80;;
80625;SDS011;69982;51.758;5.784;2024-02-28T05:01:34;21.70;;;10.50;;
80625;SDS011;69982;51.758;5.784;2024-02-28T05:07:00;22.70;;;9.90;;
80625;SDS011;69982;51.758;5.784;2024-02-28T05:09:42;19.80;;;10.30;;
80625;SDS011;69982;51.758;5.784;2024-02-28T05:12:49;20.40;;;10.50;;
80625;SDS011;69982;51.758;5.784;2024-02-28T05:15:21;22.30;;;10.50;;
80625;SDS011;69982;51.758;5.784;2024-02-28T05:19:11;21.70;;;10.20;;
80625;SDS011;69982;51.758;5.784;2024-02-28T05:21:42;21.60;;;9.70;;
80625;SDS011;69982;51.758;5.784;2024-02-28T05:24:12;20.30;;;9.30;;
80625;SDS011;69982;51.758;5.784;2024-02-28T05:26:39;23.90;;;8.80;;
80625;SDS011;69982;51.758;5.784;2024-02-28T05:29:10;19.00;;;9.90;;
80625;SDS011;69982;51.758;5.784;2024-02-28T05:31:37;32.50;;;12.20;;
80625;SDS011;69982;51.758;5.784;2024-02-28T05:34:07;25.30;;;12.80;;
80625;SDS011;69982;51.758;5.784;2024-02-28T05:36:33;23.40;;;11.40;;
80625;SDS011;69982;51.758;5.784;2024-02-28T05:39:00;24.60;;;12.70;;
80625;SDS011;69982;51.758;5.784;2024-02-28T05:41:27;25.40;;;12.30;;
80625;SDS011;69982;51.758;5.784;2024-02-28T05:43:55;24.10;;;11.30;;
80625;SDS011;69982;51.758;5.784;2024-02-28T05:46:22;25.40;;;12.60;;
80625;SDS011;69982;51.758;5.784;2024-02-28T05:48:50;24.90;;;12.50;;
80625;SDS011;69982;51.758;5.784;2024-02-28T05:51:19;21.70;;;9.80;;
80625;SDS011;69982;51.758;5.784;2024-02-28T05:53:45;22.20;;;10.60;;
80625;SDS011;69982;51.758;5.784;2024-02-28T05:56:14;20.90;;;10.10;;
80625;SDS011;69982;51.758;5.784;2024-02-28T05:58:45;21.40;;;10.40;;
80625;SDS011;69982;51.758;5.784;2024-02-28T06:01:31;19.40;;;8.50;;
80625;SDS011;69982;51.758;5.784;2024-02-28T06:04:21;24.50;;;11.50;;
80625;SDS011;69982;51.758;5.784;2024-02-28T06:06:56;22.40;;;10.40;;
80625;SDS011;69982;51.758;5.784;2024-02-28T06:09:22;27.50;;;12.70;;
80625;SDS011;69982;51.758;5.784;2024-02-28T06:12:13;29.40;;;13.10;;
80625;SDS011;69982;51.758;5.784;2024-02-28T06:14:47;28.30;;;13.60;;
80625;SDS011;69982;51.758;5.784;2024-02-28T06:17:19;29.10;;;13.90;;
80625;SDS011;69982;51.758;5.784;2024-02-28T06:19:48;23.40;;;12.70;;
80625;SDS011;69982;51.758;5.784;2024-02-28T06:24:57;25.80;;;11.40;;
80625;SDS011;69982;51.758;5.784;2024-02-28T06:27:54;28.80;;;13.20;;
80625;SDS011;69982;51.758;5.784;2024-02-28T06:33:01;24.50;;;11.70;;
80625;SDS011;69982;51.758;5.784;2024-02-28T06:35:54;27.30;;;13.00;;
80625;SDS011;69982;51.758;5.784;2024-02-28T06:38:40;27.90;;;12.30;;
80625;SDS011;69982;51.758;5.784;2024-02-28T06:41:14;26.00;;;12.40;;
80625;SDS011;69982;51.758;5.784;2024-02-28T06:43:46;27.90;;;11.30;;
80625;SDS011;69982;51.758;5.784;2024-02-28T06:46:19;27.10;;;12.40;;
80625;SDS011;69982;51.758;5.784;2024-02-28T06:49:06;27.80;;;13.70;;
80625;SDS011;69982;51.758;5.784;2024-02-28T06:51:51;34.10;;;15.80;;
80625;SDS011;69982;51.758;5.784;2024-02-28T06:54:26;33.80;;;14.70;;
80625;SDS011;69982;51.758;5.784;2024-02-28T06:57:18;30.90;;;13.80;;
80625;SDS011;69982;51.758;5.784;2024-02-28T06:59:57;34.30;;;14.50;;
80625;SDS011;69982;51.758;5.784;2024-02-28T07:33:37;41.50;;;17.60;;
80625;SDS011;69982;51.758;5.784;2024-02-28T07:36:25;41.00;;;15.60;;
80625;SDS011;69982;51.758;5.784;2024-02-28T07:39:15;41.20;;;17.20;;
80625;SDS011;69982;51.758;5.784;2024-02-28T07:41:46;35.90;;;14.90;;
80625;SDS011;69982;51.758;5.784;2024-02-28T07:44:28;40.40;;;16.00;;
80625;SDS011;69982;51.758;5.784;2024-02-28T07:50:06;40.00;;;16.30;;
80625;SDS011;69982;51.758;5.784;2024-02-28T07:52:39;44.50;;;17.60;;
80625;SDS011;69982;51.758;5.784;2024-02-28T07:55:06;47.00;;;17.70;;
80625;SDS011;69982;51.758;5.784;2024-02-28T07:57:37;42.60;;;17.20;;
80625;SDS011;69982;51.758;5.784;2024-02-28T08:00:26;42.40;;;17.60;;
80625;SDS011;69982;51.758;5.784;2024-02-28T08:03:38;41.60;;;16.00;;
80625;SDS011;69982;51.758;5.784;2024-02-28T08:06:05;38.60;;;16.50;;
80625;SDS011;69982;51.758;5.784;2024-02-28T08:08:32;40.00;;;18.10;;
80625;SDS011;69982;51.758;5.784;2024-02-28T08:11:03;38.60;;;15.20;;
80625;SDS011;69982;51.758;5.784;2024-02-28T08:13:32;32.80;;;14.90;;
80625;SDS011;69982;51.758;5.784;2024-02-28T08:15:59;39.20;;;16.70;;
80625;SDS011;69982;51.758;5.784;2024-02-28T08:18:26;36.60;;;15.20;;
80625;SDS011;69982;51.758;5.784;2024-02-28T08:20:55;37.10;;;15.30;;
80625;SDS011;69982;51.758;5.784;2024-02-28T08:23:23;37.70;;;16.10;;
80625;SDS011;69982;51.758;5.784;2024-02-28T08:25:51;38.70;;;16.40;;
80625;SDS011;69982;51.758;5.784;2024-02-28T08:28:18;38.20;;;15.80;;
80625;SDS011;69982;51.758;5.784;2024-02-28T08:30:45;43.80;;;17.40;;
80625;SDS011;69982;51.758;5.784;2024-02-28T08:33:12;41.10;;;18.10;;
80625;SDS011;69982;51.758;5.784;2024-02-28T08:35:39;34.90;;;16.80;;
80625;SDS011;69982;51.758;5.784;2024-02-28T08:38:05;39.50;;;18.40;;
80625;SDS011;69982;51.758;5.784;2024-02-28T08:40:32;31.30;;;15.80;;
80625;SDS011;69982;51.758;5.784;2024-02-28T08:42:59;34.10;;;15.20;;
80625;SDS011;69982;51.758;5.784;2024-02-28T08:45:26;31.90;;;16.10;;
80625;SDS011;69982;51.758;5.784;2024-02-28T08:47:52;32.40;;;16.30;;
80625;SDS011;69982;51.758;5.784;2024-02-28T08:50:22;33.60;;;14.80;;
80625;SDS011;69982;51.758;5.784;2024-02-28T08:52:51;34.50;;;16.50;;
80625;SDS011;69982;51.758;5.784;2024-02-28T08:55:17;32.60;;;14.20;;
80625;SDS011;69982;51.758;5.784;2024-02-28T08:57:46;37.10;;;16.10;;
80625;SDS011;69982;51.758;5.784;2024-02-28T09:00:12;39.20;;;17.50;;
80625;SDS011;69982;51.758;5.784;2024-02-28T09:02:46;34.60;;;14.50;;
80625;SDS011;69982;51.758;5.784;2024-02-28T09:05:13;32.90;;;14.80;;
80625;SDS011;69982;51.758;5.784;2024-02-28T09:07:40;24.20;;;11.30;;
80625;SDS011;69982;51.758;5.784;2024-02-28T09:10:06;32.20;;;15.30;;
80625;SDS011;69982;51.758;5.784;2024-02-28T09:12:33;29.80;;;14.80;;
80625;SDS011;69982;51.758;5.784;2024-02-28T09:15:01;30.00;;;15.40;;
80625;SDS011;69982;51.758;5.784;2024-02-28T09:17:27;33.10;;;17.20;;
80625;SDS011;69982;51.758;5.784;2024-02-28T09:19:54;27.90;;;13.50;;
80625;SDS011;69982;51.758;5.784;2024-02-28T09:22:20;37.10;;;17.40;;
80625;SDS011;69982;51.758;5.784;2024-02-28T09:24:47;38.50;;;16.80;;
80625;SDS011;69982;51.758;5.784;2024-02-28T09:27:18;35.40;;;16.30;;
80625;SDS011;69982;51.758;5.784;2024-02-28T09:29:45;31.90;;;13.70;;
80625;SDS011;69982;51.758;5.784;2024-02-28T09:32:14;31.80;;;15.30;;
80625;SDS011;69982;51.758;5.784;2024-02-28T09:34:41;36.50;;;16.50;;
80625;SDS011;69982;51.758;5.784;2024-02-28T09:37:11;35.00;;;16.60;;
80625;SDS011;69982;51.758;5.784;2024-02-28T09:39:41;31.60;;;15.70;;
80625;SDS011;69982;51.758;5.784;2024-02-28T09:42:07;32.30;;;14.80;;
80625;SDS011;69982;51.758;5.784;2024-02-28T09:44:36;35.80;;;17.90;;
80625;SDS011;69982;51.758;5.784;2024-02-28T09:47:03;31.40;;;14.50;;
80625;SDS011;69982;51.758;5.784;2024-02-28T09:49:31;32.80;;;15.00;;
80625;SDS011;69982;51.758;5.784;2024-02-28T09:51:58;35.30;;;15.60;;
80625;SDS011;69982;51.758;5.784;2024-02-28T09:54:25;31.40;;;15.30;;
80625;SDS011;69982;51.758;5.784;2024-02-28T09:56:52;36.90;;;17.10;;
80625;SDS011;69982;51.758;5.784;2024-02-28T09:59:19;31.90;;;15.60;;
80625;SDS011;69982;51.758;5.784;2024-02-28T10:01:58;32.60;;;15.70;;
80625;SDS011;69982;51.758;5.784;2024-02-28T10:04:28;31.10;;;14.80;;
80625;SDS011;69982;51.758;5.784;2024-02-28T10:06:56;31.10;;;15.00;;
80625;SDS011;69982;51.758;5.784;2024-02-28T10:09:23;34.20;;;17.50;;
80625;SDS011;69982;51.758;5.784;2024-02-28T10:11:53;35.80;;;17.10;;
80625;SDS011;69982;51.758;5.784;2024-02-28T10:14:22;38.00;;;17.30;;
80625;SDS011;69982;51.758;5.784;2024-02-28T10:16:50;36.50;;;17.60;;
80625;SDS011;69982;51.758;5.784;2024-02-28T10:19:18;35.70;;;17.10;;
80625;SDS011;69982;51.758;5.784;2024-02-28T10:21:45;30.10;;;16.50;;
80625;SDS011;69982;51.758;5.784;2024-02-28T10:24:18;31.60;;;15.30;;
80625;SDS011;69982;51.758;5.784;2024-02-28T10:26:46;27.40;;;14.10;;
80625;SDS011;69982;51.758;5.784;2024-02-28T10:29:24;34.00;;;16.10;;
80625;SDS011;69982;51.758;5.784;2024-02-28T10:31:57;30.50;;;15.60;;
80625;SDS011;69982;51.758;5.784;2024-02-28T10:34:27;30.60;;;14.10;;
80625;SDS011;69982;51.758;5.784;2024-02-28T10:36:58;32.10;;;15.30;;
80625;SDS011;69982;51.758;5.784;2024-02-28T10:39:28;29.30;;;14.70;;
80625;SDS011;69982;51.758;5.784;2024-02-28T10:41:56;30.10;;;14.10;;
80625;SDS011;69982;51.758;5.784;2024-02-28T10:44:27;28.50;;;14.80;;
80625;SDS011;69982;51.758;5.784;2024-02-28T10:46:57;31.00;;;14.90;;
80625;SDS011;69982;51.758;5.784;2024-02-28T10:51:53;30.30;;;15.70;;
80625;SDS011;69982;51.758;5.784;2024-02-28T10:54:23;29.70;;;14.80;;
80625;SDS011;69982;51.758;5.784;2024-02-28T10:56:51;31.10;;;15.30;;
80625;SDS011;69982;51.758;5.784;2024-02-28T10:59:19;33.30;;;16.00;;
80625;SDS011;69982;51.758;5.784;2024-02-28T11:01:50;32.20;;;16.30;;
80625;SDS011;69982;51.758;5.784;2024-02-28T11:04:18;31.10;;;13.90;;
80625;SDS011;69982;51.758;5.784;2024-02-28T11:06:48;30.20;;;15.40;;
80625;SDS011;69982;51.758;5.784;2024-02-28T11:09:22;28.70;;;14.90;;
80625;SDS011;69982;51.758;5.784;2024-02-28T11:11:56;27.30;;;14.20;;
80625;SDS011;69982;51.758;5.784;2024-02-28T11:14:59;31.10;;;14.80;;
80625;SDS011;69982;51.758;5.784;2024-02-28T11:17:31;29.30;;;14.50;;
80625;SDS011;69982;51.758;5.784;2024-02-28T11:20:00;29.70;;;14.30;;
80625;SDS011;69982;51.758;5.784;2024-02-28T11:22:39;30.70;;;14.20;;
80625;SDS011;69982;51.758;5.784;2024-02-28T11:25:07;27.70;;;12.40;;
80625;SDS011;69982;51.758;5.784;2024-02-28T11:27:56;28.10;;;13.70;;
80625;SDS011;69982;51.758;5.784;2024-02-28T11:30:24;37.30;;;15.20;;
80625;SDS011;69982;51.758;5.784;2024-02-28T11:32:52;25.50;;;12.90;;
80625;SDS011;69982;51.758;5.784;2024-02-28T11:37:54;25.50;;;12.70;;
80625;SDS011;69982;51.758;5.784;2024-02-28T11:40:24;29.80;;;14.10;;
80625;SDS011;69982;51.758;5.784;2024-02-28T11:42:57;31.00;;;14.90;;
80625;SDS011;69982;51.758;5.784;2024-02-28T11:45:25;25.10;;;13.10;;
80625;SDS011;69982;51.758;5.784;2024-02-28T11:47:51;26.00;;;13.30;;
80625;SDS011;69982;51.758;5.784;2024-02-28T11:50:18;25.40;;;13.80;;
80625;SDS011;69982;51.758;5.784;2024-02-28T11:52:45;29.50;;;15.10;;
80625;SDS011;69982;51.758;5.784;2024-02-28T11:55:12;33.60;;;15.20;;
80625;SDS011;69982;51.758;5.784;2024-02-28T11:57:42;30.10;;;15.30;;
80625;SDS011;69982;51.758;5.784;2024-02-28T12:00:09;30.00;;;15.60;;
80625;SDS011;69982;51.758;5.784;2024-02-28T12:02:39;32.40;;;16.00;;
80625;SDS011;69982;51.758;5.784;2024-02-28T12:05:06;30.80;;;14.90;;
80625;SDS011;69982;51.758;5.784;2024-02-28T12:07:38;27.10;;;13.30;;
80625;SDS011;69982;51.758;5.784;2024-02-28T12:10:09;30.00;;;13.60;;
80625;SDS011;69982;51.758;5.784;2024-02-28T12:12:36;33.70;;;17.00;;
80625;SDS011;69982;51.758;5.784;2024-02-28T12:15:02;34.20;;;16.40;;
80625;SDS011;69982;51.758;5.784;2024-02-28T12:17:31;27.20;;;14.00;;
80625;SDS011;69982;51.758;5.784;2024-02-28T12:19:58;29.70;;;16.30;;
80625;SDS011;69982;51.758;5.784;2024-02-28T12:22:26;33.60;;;15.30;;
80625;SDS011;69982;51.758;5.784;2024-02-28T12:24:54;38.60;;;16.50;;
80625;SDS011;69982;51.758;5.784;2024-02-28T12:27:21;29.60;;;14.60;;
80625;SDS011;69982;51.758;5.784;2024-02-28T12:29:48;31.70;;;15.20;;
80625;SDS011;69982;51.758;5.784;2024-02-28T12:32:15;30.30;;;17.00;;
80625;SDS011;69982;51.758;5.784;2024-02-28T12:34:44;28.90;;;14.70;;
80625;SDS011;69982;51.758;5.784;2024-02-28T12:37:11;27.80;;;15.20;;
80625;SDS011;69982;51.758;5.784;2024-02-28T12:39:38;28.70;;;16.20;;
80625;SDS011;69982;51.758;5.784;2024-02-28T12:42:06;29.10;;;16.00;;
80625;SDS011;69982;51.758;5.784;2024-02-28T12:44:33;27.90;;;13.70;;
80625;SDS011;69982;51.758;5.784;2024-02-28T12:47:03;28.80;;;14.20;;
80625;SDS011;69982;51.758;5.784;2024-02-28T12:49:32;24.80;;;12.90;;
80625;SDS011;69982;51.758;5.784;2024-02-28T12:52:00;28.00;;;12.80;;
80625;SDS011;69982;51.758;5.784;2024-02-28T12:54:29;21.60;;;11.10;;
80625;SDS011;69982;51.758;5.784;2024-02-28T12:56:58;23.90;;;11.10;;
80625;SDS011;69982;51.758;5.784;2024-02-28T12:59:29;24.00;;;12.90;;
80625;SDS011;69982;51.758;5.784;2024-02-28T13:01:55;24.40;;;12.30;;
80625;SDS011;69982;51.758;5.784;2024-02-28T13:04:22;24.20;;;13.50;;
80625;SDS011;69982;51.758;5.784;2024-02-28T13:06:48;21.70;;;10.70;;
80625;SDS011;69982;51.758;5.784;2024-02-28T13:09:15;24.60;;;12.90;;
80625;SDS011;69982;51.758;5.784;2024-02-28T13:11:42;25.80;;;12.70;;
80625;SDS011;69982;51.758;5.784;2024-02-28T13:14:11;26.70;;;13.00;;
80625;SDS011;69982;51.758;5.784;2024-02-28T13:16:37;29.00;;;13.90;;
80625;SDS011;69982;51.758;5.784;2024-02-28T13:19:04;24.00;;;13.50;;
80625;SDS011;69982;51.758;5.784;2024-02-28T13:21:31;29.60;;;13.60;;
80625;SDS011;69982;51.758;5.784;2024-02-28T13:23:59;30.30;;;14.60;;
80625;SDS011;69982;51.758;5.784;2024-02-28T13:26:27;34.90;;;14.80;;
80625;SDS011;69982;51.758;5.784;2024-02-28T13:28:56;34.10;;;15.80;;
80625;SDS011;69982;51.758;5.784;2024-02-28T13:31:23;33.20;;;15.50;;
80625;SDS011;69982;51.758;5.784;2024-02-28T13:33:50;27.20;;;13.50;;
80625;SDS011;69982;51.758;5.784;2024-02-28T13:36:20;28.30;;;14.30;;
80625;SDS011;69982;51.758;5.784;2024-02-28T13:38:46;33.50;;;16.10;;
80625;SDS011;69982;51.758;5.784;2024-02-28T13:41:13;27.70;;;13.50;;
80625;SDS011;69982;51.758;5.784;2024-02-28T13:43:39;32.70;;;14.80;;
80625;SDS011;69982;51.758;5.784;2024-02-28T13:46:06;26.80;;;12.10;;
80625;SDS011;69982;51.758;5.784;2024-02-28T13:48:33;28.40;;;14.50;;
80625;SDS011;69982;51.758;5.784;2024-02-28T13:50:59;29.90;;;13.50;;
80625;SDS011;69982;51.758;5.784;2024-02-28T13:53:26;29.50;;;12.90;;
80625;SDS011;69982;51.758;5.784;2024-02-28T13:55:53;26.60;;;13.80;;
80625;SDS011;69982;51.758;5.784;2024-02-28T13:58:19;29.30;;;13.90;;
80625;SDS011;69982;51.758;5.784;2024-02-28T14:00:46;31.00;;;13.50;;
80625;SDS011;69982;51.758;5.784;2024-02-28T14:03:15;34.10;;;14.00;;
80625;SDS011;69982;51.758;5.784;2024-02-28T14:05:42;28.10;;;12.60;;
80625;SDS011;69982;51.758;5.784;2024-02-28T14:10:39;33.40;;;14.10;;
80625;SDS011;69982;51.758;5.784;2024-02-28T14:13:11;30.60;;;13.50;;
80625;SDS011;69982;51.758;5.784;2024-02-28T14:15:38;30.20;;;13.10;;
80625;SDS011;69982;51.758;5.784;2024-02-28T14:18:06;26.90;;;13.00;;
80625;SDS011;69982;51.758;5.784;2024-02-28T14:20:33;28.20;;;12.80;;
80625;SDS011;69982;51.758;5.784;2024-02-28T14:22:59;24.80;;;11.30;;
80625;SDS011;69982;51.758;5.784;2024-02-28T14:25:26;24.20;;;12.20;;
80625;SDS011;69982;51.758;5.784;2024-02-28T14:27:56;28.60;;;13.00;;
80625;SDS011;69982;51.758;5.784;2024-02-28T14:30:23;28.80;;;12.00;;
80625;SDS011;69982;51.758;5.784;2024-02-28T14:32:50;26.70;;;12.20;;
80625;SDS011;69982;51.758;5.784;2024-02-28T14:35:19;27.90;;;12.40;;
80625;SDS011;69982;51.758;5.784;2024-02-28T14:37:48;26.80;;;11.30;;
80625;SDS011;69982;51.758;5.784;2024-02-28T14:40:15;25.90;;;10.90;;
80625;SDS011;69982;51.758;5.784;2024-02-28T14:42:42;23.10;;;11.20;;
80625;SDS011;69982;51.758;5.784;2024-02-28T14:45:10;21.00;;;10.50;;
80625;SDS011;69982;51.758;5.784;2024-02-28T14:47:41;20.10;;;10.60;;
80625;SDS011;69982;51.758;5.784;2024-02-28T14:50:08;21.90;;;10.60;;
80625;SDS011;69982;51.758;5.784;2024-02-28T14:52:40;22.00;;;11.00;;
80625;SDS011;69982;51.758;5.784;2024-02-28T14:55:08;23.00;;;11.40;;
80625;SDS011;69982;51.758;5.784;2024-02-28T14:57:38;25.30;;;11.50;;
80625;SDS011;69982;51.758;5.784;2024-02-28T15:00:09;21.80;;;11.00;;
80625;SDS011;69982;51.758;5.784;2024-02-28T15:02:42;22.50;;;10.90;;
80625;SDS011;69982;51.758;5.784;2024-02-28T15:05:14;20.30;;;10.10;;
80625;SDS011;69982;51.758;5.784;2024-02-28T15:07:41;21.20;;;10.00;;
80625;SDS011;69982;51.758;5.784;2024-02-28T15:10:10;18.70;;;9.90;;
80625;SDS011;69982;51.758;5.784;2024-02-28T15:12:37;22.70;;;11.00;;
80625;SDS011;69982;51.758;5.784;2024-02-28T15:15:05;23.50;;;10.60;;
80625;SDS011;69982;51.758;5.784;2024-02-28T15:17:33;18.90;;;9.80;;
80625;SDS011;69982;51.758;5.784;2024-02-28T15:20:01;21.80;;;10.80;;
80625;SDS011;69982;51.758;5.784;2024-02-28T15:22:29;21.00;;;9.50;;
80625;SDS011;69982;51.758;5.784;2024-02-28T15:24:57;22.50;;;10.00;;
80625;SDS011;69982;51.758;5.784;2024-02-28T15:27:24;21.70;;;9.90;;
80625;SDS011;69982;51.758;5.784;2024-02-28T15:29:54;18.90;;;9.70;;
80625;SDS011;69982;51.758;5.784;2024-02-28T15:32:21;20.80;;;9.90;;
80625;SDS011;69982;51.758;5.784;2024-02-28T15:34:48;18.20;;;9.20;;
80625;SDS011;69982;51.758;5.784;2024-02-28T15:37:24;23.80;;;10.20;;
80625;SDS011;69982;51.758;5.784;2024-02-28T15:39:54;21.80;;;9.70;;
80625;SDS011;69982;51.758;5.784;2024-02-28T15:42:24;22.40;;;10.30;;
80625;SDS011;69982;51.758;5.784;2024-02-28T15:44:51;18.20;;;9.00;;
80625;SDS011;69982;51.758;5.784;2024-02-28T15:47:29;18.00;;;8.20;;
80625;SDS011;69982;51.758;5.784;2024-02-28T15:49:58;13.90;;;7.40;;
80625;SDS011;69982;51.758;5.784;2024-02-28T15:52:25;16.70;;;7.90;;
80625;SDS011;69982;51.758;5.784;2024-02-28T15:54:56;15.90;;;7.80;;
80625;SDS011;69982;51.758;5.784;2024-02-28T15:57:23;15.90;;;8.30;;
80625;SDS011;69982;51.758;5.784;2024-02-28T15:59:50;16.20;;;7.80;;
80625;SDS011;69982;51.758;5.784;2024-02-28T16:02:17;17.00;;;8.80;;
80625;SDS011;69982;51.758;5.784;2024-02-28T16:04:44;15.40;;;7.90;;
80625;SDS011;69982;51.758;5.784;2024-02-28T16:07:12;16.00;;;8.30;;
80625;SDS011;69982;51.758;5.784;2024-02-28T16:09:40;14.60;;;6.80;;
80625;SDS011;69982;51.758;5.784;2024-02-28T16:12:07;12.30;;;6.60;;
80625;SDS011;69982;51.758;5.784;2024-02-28T16:14:36;14.80;;;7.00;;
80625;SDS011;69982;51.758;5.784;2024-02-28T16:17:03;16.10;;;7.60;;
80625;SDS011;69982;51.758;5.784;2024-02-28T16:19:29;14.50;;;7.10;;
80625;SDS011;69982;51.758;5.784;2024-02-28T16:21:56;14.40;;;6.70;;
80625;SDS011;69982;51.758;5.784;2024-02-28T16:24:26;14.50;;;6.80;;
80625;SDS011;69982;51.758;5.784;2024-02-28T16:26:56;13.90;;;6.80;;
80625;SDS011;69982;51.758;5.784;2024-02-28T16:29:24;16.40;;;7.10;;
80625;SDS011;69982;51.758;5.784;2024-02-28T16:31:50;15.80;;;7.20;;
80625;SDS011;69982;51.758;5.784;2024-02-28T16:34:17;12.40;;;6.40;;
80625;SDS011;69982;51.758;5.784;2024-02-28T16:36:45;12.60;;;6.70;;
80625;SDS011;69982;51.758;5.784;2024-02-28T16:39:12;12.50;;;6.10;;
80625;SDS011;69982;51.758;5.784;2024-02-28T16:41:39;15.80;;;7.20;;
80625;SDS011;69982;51.758;5.784;2024-02-28T16:44:06;12.90;;;5.80;;
80625;SDS011;69982;51.758;5.784;2024-02-28T16:46:33;13.00;;;6.60;;
80625;SDS011;69982;51.758;5.784;2024-02-28T16:48:59;13.20;;;6.80;;
80625;SDS011;69982;51.758;5.784;2024-02-28T16:51:26;12.00;;;5.70;;
80625;SDS011;69982;51.758;5.784;2024-02-28T16:53:54;13.20;;;6.50;;
80625;SDS011;69982;51.758;5.784;2024-02-28T16:56:22;14.50;;;6.30;;
80625;SDS011;69982;51.758;5.784;2024-02-28T16:58:49;12.50;;;5.90;;
80625;SDS011;69982;51.758;5.784;2024-02-28T17:01:16;10.40;;;5.80;;
80625;SDS011;69982;51.758;5.784;2024-02-28T17:03:42;11.60;;;6.00;;
80625;SDS011;69982;51.758;5.784;2024-02-28T17:06:14;11.00;;;6.10;;
80625;SDS011;69982;51.758;5.784;2024-02-28T17:08:41;11.50;;;5.80;;
80625;SDS011;69982;51.758;5.784;2024-02-28T17:11:09;13.60;;;6.00;;
80625;SDS011;69982;51.758;5.784;2024-02-28T17:13:41;13.40;;;6.90;;
80625;SDS011;69982;51.758;5.784;2024-02-28T17:16:09;9.60;;;5.40;;
80625;SDS011;69982;51.758;5.784;2024-02-28T17:18:36;12.10;;;5.40;;
80625;SDS011;69982;51.758;5.784;2024-02-28T17:21:02;11.40;;;5.60;;
80625;SDS011;69982;51.758;5.784;2024-02-28T17:23:29;11.80;;;5.40;;
80625;SDS011;69982;51.758;5.784;2024-02-28T17:25:57;11.60;;;5.60;;
80625;SDS011;69982;51.758;5.784;2024-02-28T17:28:24;11.20;;;5.20;;
80625;SDS011;69982;51.758;5.784;2024-02-28T17:30:51;9.40;;;5.10;;
80625;SDS011;69982;51.758;5.784;2024-02-28T17:33:17;13.60;;;5.20;;
80625;SDS011;69982;51.758;5.784;2024-02-28T17:35:44;9.40;;;4.80;;
80625;SDS011;69982;51.758;5.784;2024-02-28T17:38:13;10.60;;;4.80;;
80625;SDS011;69982;51.758;5.784;2024-02-28T17:40:41;10.10;;;5.10;;
80625;SDS011;69982;51.758;5.784;2024-02-28T17:43:08;12.90;;;5.40;;
80625;SDS011;69982;51.758;5.784;2024-02-28T17:45:34;11.00;;;5.00;;
80625;SDS011;69982;51.758;5.784;2024-02-28T17:48:01;10.80;;;4.50;;
80625;SDS011;69982;51.758;5.784;2024-02-28T17:50:35;9.70;;;4.80;;
80625;SDS011;69982;51.758;5.784;2024-02-28T17:53:04;13.30;;;4.80;;
80625;SDS011;69982;51.758;5.784;2024-02-28T17:55:39;12.80;;;5.20;;
80625;SDS011;69982;51.758;5.784;2024-02-28T17:58:30;11.40;;;4.50;;
80625;SDS011;69982;51.758;5.784;2024-02-28T18:01:00;9.20;;;4.10;;
80625;SDS011;69982;51.758;5.784;2024-02-28T18:03:38;11.50;;;4.80;;
80625;SDS011;69982;51.758;5.784;2024-02-28T18:06:08;11.90;;;4.60;;
80625;SDS011;69982;51.758;5.784;2024-02-28T18:08:37;11.80;;;5.20;;